Time;durP1;ratioP1;P1;durP2;ratioP2;P2;SDS_P1;SDS_P2;PMS_P1;PMS_P2;Temp;Humidity;BMP_temperature;BMP_pressure;BME280_temperature;BME280_humidity;BME280_pressure;Samples;Min_cycle;Max_cycle;Signal;HPM_P1;HPM_P2
2022/06/07 00:00:00;;;;;;;18.45;14.95;;;16.80;99.90;;;;;;5053005;28;20461;-69
2022/06/07 00:02:29;;;;;;;18.80;14.25;;;16.80;99.90;;;;;;5051988;28;20016;-68
2022/06/07 00:04:55;;;;;;;17.80;15.45;;;16.70;99.90;;;;;;5044916;28;20387;-69
2022/06/07 00:07:22;;;;;;;17.58;15.32;;;16.70;99.90;;;;;;5047182;28;20357;-69
2022/06/07 00:09:48;;;;;;;18.77;15.45;;;16.70;99.90;;;;;;5046020;28;20033;-69
2022/06/07 00:12:14;;;;;;;17.48;14.60;;;16.70;99.90;;;;;;5047376;28;20020;-69
2022/06/07 00:14:40;;;;;;;18.77;15.75;;;16.60;99.90;;;;;;5052957;28;20346;-69
2022/06/07 00:17:06;;;;;;;17.05;15.35;;;16.60;99.90;;;;;;5051534;28;20037;-69
2022/06/07 00:19:33;;;;;;;18.95;15.70;;;16.60;99.90;;;;;;5056787;28;20020;-69
2022/06/07 00:21:59;;;;;;;16.77;14.60;;;16.60;99.90;;;;;;5045522;28;20030;-69
2022/06/07 00:24:25;;;;;;;15.77;14.10;;;16.50;99.90;;;;;;5051458;28;20033;-69
2022/06/07 00:26:52;;;;;;;15.70;13.32;;;16.50;99.90;;;;;;5046130;28;20047;-69
2022/06/07 00:29:18;;;;;;;19.38;14.77;;;16.50;99.90;;;;;;5052067;28;20388;-69
2022/06/07 00:31:44;;;;;;;15.52;13.48;;;16.40;99.90;;;;;;5049197;28;20025;-69
2022/06/07 00:34:11;;;;;;;14.48;12.90;;;16.40;99.90;;;;;;5045077;28;20331;-69
2022/06/07 00:36:37;;;;;;;14.95;12.43;;;16.40;99.90;;;;;;5050490;28;20565;-69
2022/06/07 00:39:05;;;;;;;15.38;11.80;;;16.30;99.90;;;;;;5051822;28;20029;-69
2022/06/07 00:41:31;;;;;;;14.45;12.73;;;16.30;99.90;;;;;;5046645;28;20017;-68
2022/06/07 00:44:18;;;;;;;13.23;10.63;;;16.30;99.90;;;;;;5050677;28;20381;-69
2022/06/07 00:46:45;;;;;;;11.93;10.35;;;16.20;99.90;;;;;;5053272;28;20028;-69
2022/06/07 00:49:12;;;;;;;10.88;9.70;;;16.10;99.90;;;;;;5057116;28;20029;-69
2022/06/07 00:51:39;;;;;;;11.15;9.52;;;16.10;99.90;;;;;;5053275;28;20021;-69
2022/06/07 00:54:05;;;;;;;11.52;10.25;;;16.10;99.90;;;;;;5050886;28;20021;-69
2022/06/07 00:56:31;;;;;;;11.27;9.52;;;16.10;99.90;;;;;;5048952;28;20025;-69
2022/06/07 00:59:00;;;;;;;9.77;8.82;;;16.10;99.90;;;;;;5048636;28;20082;-70
2022/06/07 01:01:27;;;;;;;12.93;10.23;;;16.00;99.90;;;;;;5051759;28;20025;-69
2022/06/07 01:03:53;;;;;;;14.05;9.88;;;16.00;99.90;;;;;;5046449;28;20021;-71
2022/06/07 01:11:47;;;;;;;12.30;9.75;;;16.00;99.90;;;;;;5049494;28;20460;-71
2022/06/07 01:14:13;;;;;;;10.73;9.00;;;15.90;99.90;;;;;;5051438;28;20021;-71
2022/06/07 01:16:39;;;;;;;8.50;7.65;;;15.90;99.90;;;;;;5055448;28;20036;-71
2022/06/07 01:19:04;;;;;;;10.35;7.50;;;15.90;99.90;;;;;;5048661;28;20375;-70
2022/06/07 01:21:37;;;;;;;12.07;9.50;;;15.80;99.90;;;;;;5050975;28;20437;-70
2022/06/07 01:24:04;;;;;;;12.13;8.50;;;15.70;99.90;;;;;;5055286;28;20025;-70
2022/06/07 01:26:30;;;;;;;12.75;7.40;;;15.70;99.90;;;;;;5054854;28;20103;-70
2022/06/07 01:28:56;;;;;;;10.07;7.32;;;15.70;99.90;;;;;;5052726;28;20520;-70
2022/06/07 01:31:21;;;;;;;8.30;6.82;;;15.70;99.90;;;;;;5056032;28;20029;-70
2022/06/07 01:33:47;;;;;;;10.60;6.80;;;15.70;99.90;;;;;;5047818;28;20037;-70
2022/06/07 01:36:16;;;;;;;11.32;7.50;;;15.70;99.90;;;;;;5054581;28;20044;-70
2022/06/07 01:38:43;;;;;;;10.70;6.68;;;15.60;99.90;;;;;;5053425;28;20025;-70
2022/06/07 01:43:54;;;;;;;10.93;8.23;;;15.60;99.90;;;;;;5054013;28;20048;-70
2022/06/07 01:46:21;;;;;;;11.32;7.35;;;15.60;99.90;;;;;;5054673;28;20028;-71
2022/06/07 01:48:48;;;;;;;9.25;7.75;;;15.60;99.90;;;;;;5049321;28;20544;-70
2022/06/07 01:51:15;;;;;;;8.40;7.20;;;15.60;99.90;;;;;;5052264;28;20029;-71
2022/06/07 01:53:41;;;;;;;10.55;7.47;;;15.50;99.90;;;;;;5056910;28;20029;-70
2022/06/07 01:56:11;;;;;;;9.73;6.47;;;15.50;99.90;;;;;;5057070;28;20052;-70
2022/06/07 01:58:38;;;;;;;11.43;6.95;;;15.50;99.90;;;;;;5055522;28;20040;-70
2022/06/07 02:01:04;;;;;;;12.30;6.22;;;15.60;99.90;;;;;;5060288;28;20021;-70
2022/06/07 02:03:30;;;;;;;10.13;6.45;;;15.50;99.90;;;;;;5057765;28;20683;-70
2022/06/07 02:06:14;;;;;;;5.90;5.35;;;15.50;99.90;;;;;;5055450;28;20022;-70
2022/06/07 02:08:41;;;;;;;6.85;5.95;;;15.50;99.90;;;;;;5059737;28;20040;-70
2022/06/07 02:11:19;;;;;;;10.13;6.50;;;15.50;99.90;;;;;;5055111;28;20024;-70
2022/06/07 02:13:46;;;;;;;9.23;6.05;;;15.50;99.90;;;;;;5057416;28;20435;-70
2022/06/07 02:16:12;;;;;;;7.47;5.65;;;15.40;99.90;;;;;;5050490;28;20545;-70
2022/06/07 02:18:38;;;;;;;7.80;5.90;;;15.40;99.90;;;;;;5061559;28;20028;-71
2022/06/07 02:21:05;;;;;;;7.97;5.15;;;15.40;99.90;;;;;;5059653;28;20050;-70
2022/06/07 02:23:33;;;;;;;7.50;4.82;;;15.40;99.90;;;;;;5050554;28;20496;-71
2022/06/07 02:26:05;;;;;;;7.70;5.28;;;15.30;99.90;;;;;;5058854;28;20086;-70
2022/06/07 02:28:35;;;;;;;9.40;5.55;;;15.30;99.90;;;;;;5046256;28;20389;-70
2022/06/07 02:31:03;;;;;;;7.75;6.40;;;15.30;99.90;;;;;;5053246;28;20077;-70
2022/06/07 02:33:30;;;;;;;6.32;5.75;;;15.30;99.90;;;;;;5056618;28;20139;-70
2022/06/07 02:35:56;;;;;;;9.27;5.70;;;15.30;99.90;;;;;;5054645;28;20025;-70
2022/06/07 02:38:22;;;;;;;7.57;5.13;;;15.30;99.90;;;;;;5063836;28;20028;-70
2022/06/07 02:40:50;;;;;;;8.02;4.85;;;15.20;99.90;;;;;;5048976;28;20029;-70
2022/06/07 02:43:16;;;;;;;8.57;4.70;;;15.20;99.90;;;;;;5053659;28;20040;-71
2022/06/07 02:45:42;;;;;;;5.85;4.82;;;15.20;99.90;;;;;;5060233;28;20032;-71
2022/06/07 02:48:09;;;;;;;9.23;4.70;;;15.20;99.90;;;;;;5055239;28;20116;-71
2022/06/07 02:50:35;;;;;;;11.02;4.90;;;15.20;99.90;;;;;;5048580;28;20489;-70
2022/06/07 02:53:01;;;;;;;7.68;4.82;;;15.20;99.90;;;;;;5052084;28;20054;-70
2022/06/07 02:55:27;;;;;;;4.82;4.40;;;15.10;99.90;;;;;;5053489;28;20031;-70
2022/06/07 02:57:52;;;;;;;9.68;5.35;;;15.20;99.90;;;;;;5063961;28;20047;-70
2022/06/07 03:00:18;;;;;;;6.82;4.68;;;15.10;99.90;;;;;;5059201;28;20031;-70
2022/06/07 03:02:44;;;;;;;8.73;4.57;;;15.20;99.90;;;;;;5047955;28;20029;-70
2022/06/07 03:05:11;;;;;;;7.68;4.20;;;15.10;99.90;;;;;;5058425;28;20053;-70
2022/06/07 03:07:38;;;;;;;5.97;4.47;;;15.10;99.90;;;;;;5049414;28;20036;-70
2022/06/07 03:10:05;;;;;;;9.77;4.22;;;15.10;99.90;;;;;;5058958;28;20035;-70
2022/06/07 03:12:32;;;;;;;5.72;4.70;;;15.10;99.90;;;;;;5058013;28;20112;-70
2022/06/07 03:14:58;;;;;;;8.13;3.90;;;15.10;99.90;;;;;;5051667;28;20021;-70
2022/06/07 03:17:24;;;;;;;5.95;4.40;;;15.00;99.90;;;;;;5052963;28;20496;-70
2022/06/07 03:19:50;;;;;;;7.97;3.70;;;15.10;99.90;;;;;;5063648;28;20373;-70
2022/06/07 03:22:17;;;;;;;6.93;4.30;;;15.10;99.90;;;;;;5055845;28;20489;-69
2022/06/07 03:24:43;;;;;;;8.52;4.47;;;15.10;99.90;;;;;;5057916;28;20468;-70
2022/06/07 03:27:09;;;;;;;6.80;4.68;;;15.10;99.90;;;;;;5053078;28;20085;-71
2022/06/07 03:29:35;;;;;;;7.55;3.88;;;15.10;99.90;;;;;;5058071;28;20029;-70
2022/06/07 03:32:00;;;;;;;4.50;4.10;;;15.10;99.90;;;;;;5052620;28;20599;-70
2022/06/07 03:34:26;;;;;;;6.63;4.70;;;15.20;99.90;;;;;;5058579;28;20511;-70
2022/06/07 03:36:53;;;;;;;8.88;4.28;;;15.20;99.90;;;;;;5053651;28;20110;-70
2022/06/07 03:39:18;;;;;;;7.18;4.47;;;15.10;99.90;;;;;;5049718;28;20162;-70
2022/06/07 03:41:45;;;;;;;7.82;4.47;;;15.10;99.90;;;;;;5059275;28;20111;-70
2022/06/07 03:44:10;;;;;;;10.27;4.88;;;15.10;99.90;;;;;;5043492;28;20045;-70
2022/06/07 03:46:36;;;;;;;7.47;4.47;;;15.10;99.90;;;;;;5055423;28;20036;-70
2022/06/07 03:49:03;;;;;;;6.43;4.60;;;15.10;99.90;;;;;;5061375;28;20100;-70
2022/06/07 03:51:31;;;;;;;4.45;3.63;;;15.20;99.90;;;;;;5049179;28;20840;-70
2022/06/07 03:53:57;;;;;;;6.78;4.13;;;15.20;99.90;;;;;;5050817;28;20025;-70
2022/06/07 03:56:23;;;;;;;7.05;4.35;;;15.10;99.90;;;;;;5057887;28;20527;-70
2022/06/07 03:58:50;;;;;;;7.15;3.97;;;15.20;99.90;;;;;;5051377;28;20507;-71
2022/06/07 04:01:19;;;;;;;7.10;4.32;;;15.20;99.90;;;;;;5055733;28;20060;-70
2022/06/07 04:03:46;;;;;;;5.50;4.15;;;15.10;99.90;;;;;;5051789;28;20554;-70
2022/06/07 04:06:34;;;;;;;9.45;4.68;;;15.00;99.90;;;;;;5061942;28;20033;-71
2022/06/07 04:08:59;;;;;;;8.93;3.70;;;15.10;99.90;;;;;;5051102;28;20037;-70
2022/06/07 04:11:27;;;;;;;10.38;3.95;;;15.10;99.90;;;;;;5050164;28;20025;-70
2022/06/07 04:13:54;;;;;;;10.20;4.30;;;15.10;99.90;;;;;;5062197;28;20099;-71
2022/06/07 04:16:22;;;;;;;7.88;4.38;;;15.10;99.90;;;;;;5068438;28;20016;-71
2022/06/07 04:18:49;;;;;;;8.13;3.90;;;15.20;99.90;;;;;;5050536;28;20032;-71
2022/06/07 04:21:15;;;;;;;9.32;4.28;;;15.20;99.90;;;;;;5058098;28;20105;-70
2022/06/07 04:23:41;;;;;;;5.10;3.88;;;15.10;99.90;;;;;;5057206;28;20411;-70
2022/06/07 04:26:18;;;;;;;8.05;4.65;;;15.10;99.90;;;;;;5049281;28;20111;-70
2022/06/07 04:28:44;;;;;;;6.38;3.75;;;15.10;99.90;;;;;;5065282;28;20054;-71
2022/06/07 04:31:13;;;;;;;8.23;4.70;;;15.10;99.90;;;;;;5058627;28;20470;-71
2022/06/07 04:33:38;;;;;;;8.23;4.47;;;15.10;99.90;;;;;;5055218;28;20040;-70
2022/06/07 04:36:18;;;;;;;7.97;4.00;;;15.20;99.90;;;;;;5056259;28;20021;-70
2022/06/07 04:38:45;;;;;;;8.35;3.92;;;15.10;99.90;;;;;;5046991;28;20436;-71
2022/06/07 04:41:13;;;;;;;8.93;4.55;;;15.20;99.90;;;;;;5054720;28;20029;-70
2022/06/07 04:43:39;;;;;;;6.43;4.38;;;15.10;99.90;;;;;;5054680;28;20032;-70
2022/06/07 04:46:08;;;;;;;6.90;5.10;;;15.20;99.90;;;;;;5047475;28;20053;-70
2022/06/07 04:48:35;;;;;;;8.23;4.50;;;15.20;99.90;;;;;;5043378;28;20397;-70
2022/06/07 04:51:05;;;;;;;8.02;4.50;;;15.10;99.90;;;;;;5043889;28;20036;-71
2022/06/07 04:53:31;;;;;;;5.05;4.03;;;15.00;99.90;;;;;;5061493;28;20029;-70
2022/06/07 04:55:58;;;;;;;9.32;4.95;;;15.10;99.90;;;;;;5063658;28;20059;-70
2022/06/07 04:58:23;;;;;;;10.90;5.30;;;15.10;99.90;;;;;;5053614;28;20032;-70
2022/06/07 05:00:49;;;;;;;7.60;5.15;;;15.20;99.90;;;;;;5061088;28;20080;-71
2022/06/07 05:03:15;;;;;;;9.65;5.10;;;15.20;99.90;;;;;;5054862;28;20079;-70
2022/06/07 05:05:40;;;;;;;7.75;4.72;;;15.20;99.90;;;;;;5052403;28;20379;-70
2022/06/07 05:08:06;;;;;;;9.50;5.00;;;15.30;99.90;;;;;;5053117;28;20041;-70
2022/06/07 05:10:32;;;;;;;8.70;5.07;;;15.40;99.90;;;;;;5050324;28;20390;-70
2022/06/07 05:12:57;;;;;;;8.50;4.32;;;15.30;99.90;;;;;;5058880;28;20033;-70
2022/06/07 05:15:23;;;;;;;9.60;4.80;;;15.40;99.90;;;;;;5049282;28;20493;-70
2022/06/07 05:17:48;;;;;;;7.63;4.82;;;15.40;99.90;;;;;;5047358;28;20079;-70
2022/06/07 05:20:14;;;;;;;7.13;4.72;;;15.40;99.90;;;;;;5051983;28;20025;-70
2022/06/07 05:22:40;;;;;;;7.60;4.80;;;15.40;99.90;;;;;;5062037;28;20075;-70
2022/06/07 05:25:06;;;;;;;7.47;4.85;;;15.40;99.90;;;;;;5045613;28;20067;-70
2022/06/07 05:27:41;;;;;;;7.78;4.65;;;15.40;99.90;;;;;;5048363;28;20033;-70
2022/06/07 05:30:10;;;;;;;8.63;4.75;;;15.50;99.90;;;;;;5060292;28;20066;-70
2022/06/07 05:32:36;;;;;;;8.43;4.93;;;15.50;99.90;;;;;;5051472;28;20020;-70
2022/06/07 05:35:05;;;;;;;9.82;4.97;;;15.50;99.90;;;;;;5059580;28;20385;-70
2022/06/07 05:37:32;;;;;;;6.95;4.70;;;15.50;99.90;;;;;;5052543;28;20032;-70
2022/06/07 05:39:58;;;;;;;5.20;3.95;;;15.50;99.90;;;;;;5059411;28;20059;-70
2022/06/07 05:42:23;;;;;;;7.32;4.53;;;15.50;99.90;;;;;;5058880;28;20076;-70
2022/06/07 05:44:49;;;;;;;6.10;4.05;;;15.60;99.90;;;;;;5057324;28;20463;-70
2022/06/07 05:47:15;;;;;;;7.25;4.03;;;15.60;99.90;;;;;;5051795;28;20048;-70
2022/06/07 05:49:41;;;;;;;12.25;4.22;;;15.70;99.90;;;;;;5065956;28;20028;-70
2022/06/07 05:52:07;;;;;;;5.28;4.07;;;15.80;99.90;;;;;;5065048;28;20082;-70
2022/06/07 05:54:34;;;;;;;8.43;4.55;;;15.70;99.90;;;;;;5053856;28;20412;-70
2022/06/07 05:57:01;;;;;;;9.13;5.00;;;15.80;99.90;;;;;;5062384;28;20029;-70
2022/06/07 05:59:27;;;;;;;7.75;4.53;;;15.70;99.90;;;;;;5050116;28;20025;-70
2022/06/07 06:01:53;;;;;;;7.78;4.43;;;15.70;99.90;;;;;;5052847;28;20124;-70
2022/06/07 06:04:19;;;;;;;8.38;4.20;;;15.90;99.90;;;;;;5050481;28;20109;-70
2022/06/07 06:06:45;;;;;;;7.45;4.53;;;15.90;99.90;;;;;;5050922;28;20033;-70
2022/06/07 06:11:55;;;;;;;10.20;4.20;;;16.00;99.90;;;;;;5051069;28;20547;-70
2022/06/07 06:14:21;;;;;;;10.15;4.72;;;16.10;99.90;;;;;;5054906;28;20103;-70
2022/06/07 06:16:47;;;;;;;9.40;4.72;;;16.10;99.90;;;;;;5050023;28;20457;-70
2022/06/07 06:19:13;;;;;;;14.30;4.93;;;16.20;99.90;;;;;;5047241;28;20028;-70
2022/06/07 06:21:41;;;;;;;8.52;4.75;;;16.30;99.90;;;;;;5053283;28;20036;-70
2022/06/07 06:24:09;;;;;;;12.35;4.80;;;16.30;99.90;;;;;;5053999;28;20025;-70
2022/06/07 06:26:37;;;;;;;12.13;4.68;;;16.40;99.90;;;;;;5048820;28;20462;-70
2022/06/07 06:29:03;;;;;;;5.72;4.50;;;16.50;99.90;;;;;;5048100;28;20032;-70
2022/06/07 06:31:29;;;;;;;6.20;4.82;;;16.60;99.90;;;;;;5050403;28;20107;-70
2022/06/07 06:33:54;;;;;;;9.40;5.28;;;16.70;99.90;;;;;;5050250;28;20106;-70
2022/06/07 06:36:23;;;;;;;8.20;5.03;;;16.70;99.90;;;;;;5052421;28;20021;-71
2022/06/07 06:38:49;;;;;;;7.75;4.07;;;16.80;99.90;;;;;;5045821;28;20112;-70
2022/06/07 06:41:26;;;;;;;7.88;4.40;;;16.80;99.90;;;;;;5053195;28;20107;-70
2022/06/07 06:43:52;;;;;;;8.50;4.45;;;16.90;99.90;;;;;;5053769;28;20188;-71
2022/06/07 06:46:21;;;;;;;6.70;4.00;;;17.00;99.90;;;;;;5054473;28;20082;-71
2022/06/07 06:48:47;;;;;;;6.88;4.43;;;17.00;99.90;;;;;;5040118;28;20064;-70
2022/06/07 06:51:18;;;;;;;7.43;3.72;;;17.10;99.90;;;;;;5054131;28;20064;-72
2022/06/07 06:53:44;;;;;;;7.95;3.80;;;17.20;99.90;;;;;;5059371;28;20517;-71
2022/06/07 06:56:13;;;;;;;8.38;4.30;;;17.30;99.90;;;;;;5034467;28;20439;-71
2022/06/07 06:58:40;;;;;;;5.25;3.67;;;17.40;99.90;;;;;;5033914;28;20025;-71
2022/06/07 07:01:09;;;;;;;7.80;4.30;;;17.60;99.90;;;;;;5033805;28;20032;-72
2022/06/07 07:03:36;;;;;;;5.57;4.43;;;17.70;99.90;;;;;;5033466;28;20044;-71
2022/06/07 07:06:02;;;;;;;8.23;4.78;;;17.80;99.90;;;;;;5033705;28;20072;-71
2022/06/07 07:08:29;;;;;;;7.00;3.90;;;17.90;99.90;;;;;;5042763;28;20036;-71
2022/06/07 07:11:12;;;;;;;6.53;3.90;;;17.90;99.90;;;;;;5054045;28;20426;-72
2022/06/07 07:13:39;;;;;;;5.53;4.00;;;18.00;99.90;;;;;;5053404;28;20727;-71
2022/06/07 07:16:10;;;;;;;8.00;3.85;;;18.20;99.90;;;;;;5050773;28;20030;-71
2022/06/07 07:18:37;;;;;;;8.52;3.58;;;18.20;99.90;;;;;;5034005;28;20456;-71
2022/06/07 07:21:08;;;;;;;8.02;3.58;;;18.30;99.90;;;;;;5034159;28;20022;-71
2022/06/07 07:23:35;;;;;;;7.05;3.85;;;18.40;99.90;;;;;;5033616;28;20029;-71
2022/06/07 07:26:10;;;;;;;8.73;4.03;;;18.40;99.90;;;;;;5033882;28;20104;-71
2022/06/07 07:28:38;;;;;;;6.80;3.53;;;18.50;99.90;;;;;;5033568;28;20112;-70
2022/06/07 07:31:06;;;;;;;10.55;3.97;;;18.60;99.90;;;;;;5054418;28;20013;-71
2022/06/07 07:33:32;;;;;;;8.55;3.90;;;18.70;99.90;;;;;;5073657;28;20025;-70
2022/06/07 07:36:01;;;;;;;6.45;3.63;;;18.80;99.90;;;;;;5072459;28;20020;-71
2022/06/07 07:38:26;;;;;;;8.32;3.58;;;18.90;99.90;;;;;;5058009;28;20026;-71
2022/06/07 07:40:52;;;;;;;8.65;3.85;;;18.90;99.90;;;;;;5052572;28;20035;-71
2022/06/07 07:43:19;;;;;;;6.63;3.70;;;18.90;99.90;;;;;;5051788;28;20295;-71
2022/06/07 07:45:49;;;;;;;7.65;3.28;;;18.90;99.90;;;;;;5053038;28;20032;-71
2022/06/07 07:48:16;;;;;;;4.63;2.70;;;19.00;99.90;;;;;;5052769;28;20033;-71
2022/06/07 07:50:42;;;;;;;7.15;3.72;;;19.10;99.90;;;;;;5052650;28;20098;-71
2022/06/07 07:53:08;;;;;;;7.22;3.08;;;19.00;99.90;;;;;;5052933;28;20461;-71
2022/06/07 07:55:34;;;;;;;6.85;3.20;;;19.10;99.90;;;;;;5034619;28;20359;-70
2022/06/07 07:58:00;;;;;;;9.73;3.45;;;19.10;99.90;;;;;;5033422;28;20067;-71
2022/06/07 08:00:26;;;;;;;4.20;3.30;;;19.20;99.90;;;;;;5043484;28;20380;-71
2022/06/07 08:02:52;;;;;;;7.47;3.38;;;19.20;99.90;;;;;;5073097;28;20027;-71
2022/06/07 08:05:18;;;;;;;7.97;3.67;;;19.20;99.90;;;;;;5046215;28;20095;-71
2022/06/07 08:07:43;;;;;;;6.60;2.78;;;19.30;99.90;;;;;;5044088;28;20036;-71
2022/06/07 08:10:09;;;;;;;5.40;2.70;;;19.40;99.90;;;;;;5037574;28;20076;-71
2022/06/07 08:12:35;;;;;;;7.10;2.55;;;19.40;99.90;;;;;;5048893;28;20037;-71
2022/06/07 08:15:00;;;;;;;7.85;3.10;;;19.50;99.90;;;;;;5033712;28;20429;-71
2022/06/07 08:17:27;;;;;;;6.50;2.85;;;19.50;99.90;;;;;;5021155;28;20476;-71
2022/06/07 08:19:53;;;;;;;5.13;2.75;;;19.50;99.90;;;;;;5036356;28;20021;-72
2022/06/07 08:22:20;;;;;;;4.07;2.78;;;19.60;99.90;;;;;;5043656;28;20473;-70
2022/06/07 08:24:46;;;;;;;7.18;2.55;;;19.60;99.90;;;;;;5044321;28;20104;-70
2022/06/07 08:27:13;;;;;;;5.28;2.20;;;19.60;99.90;;;;;;5043103;28;20044;-71
2022/06/07 08:29:39;;;;;;;6.65;2.63;;;19.60;99.90;;;;;;5040941;28;20029;-71
2022/06/07 08:32:06;;;;;;;5.45;2.20;;;19.50;99.90;;;;;;5041518;28;20033;-71
2022/06/07 08:37:36;;;;;;;6.40;2.45;;;19.60;99.90;;;;;;5035729;28;20068;-72
2022/06/07 08:40:26;;;;;;;7.10;2.13;;;19.60;99.90;;;;;;5052684;28;20025;-72
2022/06/07 08:42:55;;;;;;;4.53;2.28;;;19.60;99.90;;;;;;5044321;28;20047;-70
2022/06/07 08:45:33;;;;;;;5.82;2.30;;;19.60;99.90;;;;;;5060904;28;20052;-71
2022/06/07 08:48:25;;;;;;;5.28;2.25;;;19.60;99.90;;;;;;5039270;28;20038;-71
2022/06/07 08:51:13;;;;;;;4.20;2.00;;;19.80;99.90;;;;;;5045183;28;20029;-71
2022/06/07 08:53:44;;;;;;;3.70;2.10;;;19.80;99.90;;;;;;5064832;28;20474;-71
2022/06/07 08:56:16;;;;;;;4.80;2.40;;;19.80;99.90;;;;;;5054674;28;20024;-71
2022/06/07 08:58:47;;;;;;;6.75;2.22;;;19.90;99.90;;;;;;5059453;28;20032;-71
2022/06/07 09:01:13;;;;;;;3.67;2.10;;;20.00;99.90;;;;;;5061622;28;20032;-71
2022/06/07 09:03:55;;;;;;;4.10;2.00;;;20.00;99.90;;;;;;5053019;28;20029;-71
2022/06/07 09:06:24;;;;;;;8.02;2.17;;;19.90;99.90;;;;;;5057202;28;20056;-71
2022/06/07 09:08:53;;;;;;;4.43;2.15;;;20.00;99.90;;;;;;5058459;28;20059;-72
2022/06/07 09:14:25;;;;;;;5.43;2.00;;;20.70;99.90;;;;;;5047018;28;20512;-71
2022/06/07 09:16:53;;;;;;;3.60;2.00;;;20.80;99.90;;;;;;5060547;28;20374;-70
2022/06/07 09:19:24;;;;;;;4.20;1.92;;;20.80;99.90;;;;;;5063749;28;20024;-71
2022/06/07 09:21:50;;;;;;;3.72;1.55;;;20.70;99.90;;;;;;5068505;28;20028;-71
2022/06/07 09:24:41;;;;;;;2.50;1.35;;;20.70;99.90;;;;;;5057541;28;20098;-72
2022/06/07 09:27:17;;;;;;;5.28;1.75;;;20.70;99.90;;;;;;5063151;28;20056;-71
2022/06/07 09:29:56;;;;;;;3.78;1.83;;;20.70;99.90;;;;;;5050276;28;20470;-71
2022/06/07 09:32:27;;;;;;;3.92;1.40;;;20.60;99.90;;;;;;5071561;28;20499;-71
2022/06/07 09:35:01;;;;;;;2.88;1.40;;;20.50;99.90;;;;;;5067859;28;20017;-70
2022/06/07 09:38:07;;;;;;;1.77;1.27;;;20.40;99.90;;;;;;5064817;28;20033;-70
2022/06/07 09:40:36;;;;;;;3.55;1.35;;;20.40;99.90;;;;;;5057928;28;20033;-71
2022/06/07 09:43:16;;;;;;;2.08;1.17;;;20.50;99.90;;;;;;5062205;28;20025;-71
2022/06/07 09:45:45;;;;;;;2.95;0.98;;;20.50;99.90;;;;;;5043305;28;20038;-71
2022/06/07 09:48:49;;;;;;;5.05;1.25;;;20.70;99.90;;;;;;5042534;28;20029;-71
2022/06/07 09:51:27;;;;;;;2.67;1.15;;;20.70;99.90;;;;;;5066043;28;20060;-70
2022/06/07 09:54:13;;;;;;;2.92;1.35;;;20.90;99.90;;;;;;5057666;28;20033;-71
2022/06/07 09:56:51;;;;;;;2.67;1.42;;;20.90;99.90;;;;;;5043203;28;20031;-70
2022/06/07 09:59:24;;;;;;;5.18;1.40;;;20.90;99.90;;;;;;5054457;28;20028;-70
2022/06/07 10:01:56;;;;;;;5.68;1.85;;;20.80;99.90;;;;;;5059743;28;20053;-71
2022/06/07 10:05:08;;;;;;;7.03;1.55;;;20.80;99.90;;;;;;5070693;28;20024;-71
2022/06/07 10:08:01;;;;;;;1.92;1.20;;;21.00;99.90;;;;;;5063959;28;20043;-71
2022/06/07 10:10:53;;;;;;;2.97;1.20;;;21.10;99.90;;;;;;5058631;28;20048;-70
2022/06/07 10:13:19;;;;;;;5.40;1.53;;;21.20;99.90;;;;;;5046956;28;20038;-71
2022/06/07 10:16:22;;;;;;;3.95;1.98;;;21.20;99.90;;;;;;5043143;28;20102;-71
2022/06/07 10:18:48;;;;;;;2.67;1.30;;;21.20;99.90;;;;;;5046851;28;20492;-68
2022/06/07 10:21:40;;;;;;;2.75;1.35;;;21.20;99.90;;;;;;5047220;28;20025;-70
2022/06/07 10:24:24;;;;;;;2.13;1.10;;;21.20;99.90;;;;;;5051373;28;20013;-70
2022/06/07 10:26:58;;;;;;;3.40;1.33;;;21.20;99.90;;;;;;5057592;28;20032;-70
2022/06/07 10:29:45;;;;;;;5.28;1.27;;;21.10;99.90;;;;;;5053385;28;20021;-70
2022/06/07 10:33:01;;;;;;;5.38;1.35;;;21.10;99.90;;;;;;5050293;28;20471;-70
2022/06/07 10:35:39;;;;;;;2.80;1.30;;;21.20;99.90;;;;;;5049843;28;20024;-70
2022/06/07 10:38:19;;;;;;;4.35;1.25;;;21.20;99.90;;;;;;5035969;28;20086;-70
2022/06/07 10:41:05;;;;;;;6.40;1.25;;;21.30;99.90;;;;;;5054782;28;20041;-70
2022/06/07 10:43:42;;;;;;;2.33;1.33;;;21.20;99.90;;;;;;5057142;28;20045;-70
2022/06/07 10:46:14;;;;;;;2.25;1.27;;;21.30;99.90;;;;;;5054305;28;20035;-70
2022/06/07 10:48:56;;;;;;;5.38;1.25;;;21.30;99.90;;;;;;5044329;28;20409;-70
2022/06/07 10:54:35;;;;;;;3.55;1.65;;;21.10;99.90;;;;;;5045459;28;20083;-70
2022/06/07 10:57:12;;;;;;;2.10;1.13;;;21.20;99.90;;;;;;5058461;28;20025;-70
2022/06/07 10:59:40;;;;;;;2.42;1.48;;;21.20;99.90;;;;;;5059470;28;20384;-70
2022/06/07 11:02:29;;;;;;;1.75;1.38;;;21.30;99.90;;;;;;5048306;28;20033;-70
2022/06/07 11:10:44;;;;;;;8.70;2.05;;;21.50;99.90;;;;;;5049864;28;20055;-70
2022/06/07 11:13:19;;;;;;;5.53;2.03;;;21.50;99.90;;;;;;5057909;28;20024;-70
2022/06/07 11:16:11;;;;;;;5.40;1.90;;;21.50;99.90;;;;;;5058548;28;20044;-70
2022/06/07 11:18:41;;;;;;;3.05;2.25;;;21.40;99.90;;;;;;5042078;28;20074;-70
2022/06/07 11:21:06;;;;;;;6.38;2.50;;;21.30;99.90;;;;;;5060545;28;20570;-70
2022/06/07 11:23:43;;;;;;;5.55;3.03;;;21.20;99.90;;;;;;5064561;28;20036;-70
2022/06/07 11:26:17;;;;;;;6.32;3.03;;;21.10;99.90;;;;;;5055164;28;20021;-70
2022/06/07 11:28:53;;;;;;;4.57;2.40;;;21.10;99.90;;;;;;5066500;28;20478;-70
2022/06/07 11:31:39;;;;;;;6.60;2.45;;;21.10;99.90;;;;;;5051803;28;20113;-70
2022/06/07 11:34:31;;;;;;;5.70;2.60;;;21.20;99.90;;;;;;5065593;28;20035;-71
2022/06/07 11:37:15;;;;;;;3.85;2.30;;;21.20;99.90;;;;;;5047000;28;20400;-71
2022/06/07 11:39:41;;;;;;;6.53;2.45;;;21.20;99.90;;;;;;5057508;28;20047;-71
2022/06/07 11:42:33;;;;;;;8.63;2.83;;;21.20;99.90;;;;;;5066113;28;20520;-71
2022/06/07 11:45:25;;;;;;;6.10;2.58;;;21.30;99.90;;;;;;5054440;28;20033;-71
2022/06/07 11:48:10;;;;;;;4.38;2.95;;;21.50;99.90;;;;;;5044030;28;20026;-71
2022/06/07 11:50:53;;;;;;;5.53;3.13;;;21.40;99.90;;;;;;5037065;28;20021;-71
2022/06/07 11:53:29;;;;;;;3.67;2.95;;;21.60;99.90;;;;;;5060492;28;20025;-71
2022/06/07 11:56:36;;;;;;;4.57;2.38;;;21.50;99.90;;;;;;5066696;28;20028;-70
2022/06/07 11:59:22;;;;;;;4.07;2.60;;;21.50;99.90;;;;;;5067445;28;20028;-70
2022/06/07 12:01:55;;;;;;;6.65;2.90;;;21.60;99.90;;;;;;5068831;28;20050;-70
2022/06/07 12:04:53;;;;;;;4.65;3.17;;;21.70;99.90;;;;;;5044455;28;20512;-70
2022/06/07 12:07:51;;;;;;;6.90;2.90;;;21.60;99.90;;;;;;5048029;28;20509;-70
2022/06/07 12:10:17;;;;;;;2.60;2.33;;;21.70;99.90;;;;;;5042848;28;20126;-71
2022/06/07 12:12:54;;;;;;;6.47;2.63;;;21.90;99.90;;;;;;5045368;28;20433;-71
2022/06/07 12:15:41;;;;;;;3.33;2.67;;;22.10;99.90;;;;;;5047363;28;20022;-71
2022/06/07 12:18:27;;;;;;;3.20;2.90;;;22.10;99.90;;;;;;5045926;28;20118;-71
2022/06/07 12:21:06;;;;;;;3.00;2.65;;;21.80;99.90;;;;;;5040146;28;20051;-70
2022/06/07 12:23:36;;;;;;;5.28;2.85;;;21.60;99.90;;;;;;5045607;28;20021;-71
2022/06/07 12:26:06;;;;;;;4.68;2.33;;;21.50;99.90;;;;;;5044609;28;20021;-70
2022/06/07 12:28:39;;;;;;;2.97;2.70;;;21.60;99.90;;;;;;5044536;28;20032;-70
2022/06/07 12:31:21;;;;;;;5.97;2.78;;;21.50;99.90;;;;;;5043473;28;20024;-70
2022/06/07 12:33:55;;;;;;;;;;;21.50;99.90;;;;;;5057067;28;20037;-70
2022/06/07 12:36:30;;;;;;;4.82;2.90;;;21.50;99.90;;;;;;5049488;28;19959;-71
2022/06/07 12:39:00;;;;;;;2.70;2.30;;;21.30;99.90;;;;;;5062526;28;20055;-70
2022/06/07 12:41:27;;;;;;;3.97;2.50;;;21.10;99.90;;;;;;5057392;28;20083;-70
2022/06/07 12:43:58;;;;;;;4.35;3.00;;;21.10;99.90;;;;;;5035437;28;20574;-70
2022/06/07 12:46:27;;;;;;;3.50;2.60;;;21.00;99.90;;;;;;5071220;28;20051;-70
2022/06/07 12:48:58;;;;;;;4.30;2.22;;;20.80;99.90;;;;;;5054175;28;20100;-70
2022/06/07 12:51:37;;;;;;;2.55;1.70;;;21.00;99.90;;;;;;5056999;28;20024;-70
2022/06/07 12:54:19;;;;;;;2.13;1.83;;;21.00;99.90;;;;;;5067159;28;20112;-70
2022/06/07 12:56:46;;;;;;;2.15;1.50;;;21.00;99.90;;;;;;5052547;28;20056;-71
2022/06/07 12:59:34;;;;;;;2.50;1.42;;;21.20;99.90;;;;;;5058080;28;20017;-70
2022/06/07 13:02:02;;;;;;;1.40;1.30;;;21.40;99.90;;;;;;5052465;28;20032;-71
2022/06/07 13:04:39;;;;;;;1.85;0.90;;;21.40;99.90;;;;;;5053786;28;20095;-71
2022/06/07 13:07:16;;;;;;;0.80;0.80;;;21.20;99.90;;;;;;5050643;28;20059;-71
2022/06/07 13:09:45;;;;;;;0.98;0.88;;;21.40;99.90;;;;;;5049797;28;20025;-72
2022/06/07 13:12:20;;;;;;;2.03;0.60;;;21.50;99.90;;;;;;5054000;28;20036;-73
2022/06/07 13:14:46;;;;;;;1.58;0.80;;;21.70;99.90;;;;;;5057951;28;20024;-71
2022/06/07 13:17:28;;;;;;;3.20;0.85;;;21.90;99.90;;;;;;5050627;28;20025;-71
2022/06/07 13:19:54;;;;;;;0.70;0.70;;;21.90;99.90;;;;;;5055937;28;20025;-71
2022/06/07 13:22:22;;;;;;;3.35;0.60;;;21.70;99.90;;;;;;5060811;28;20047;-70
2022/06/07 13:24:52;;;;;;;1.35;0.80;;;21.90;99.90;;;;;;5053989;28;20570;-71
2022/06/07 13:27:41;;;;;;;0.60;0.60;;;22.20;99.90;;;;;;5065174;28;20028;-70
2022/06/07 13:30:22;;;;;;;1.15;0.95;;;22.50;99.90;;;;;;5065095;28;20020;-71